Time;durP1;ratioP1;P1;durP2;ratioP2;P2;SDS_P1;SDS_P2;PMS_P1;PMS_P2;Temp;Humidity;BMP_temperature;BMP_pressure;BME280_temperature;BME280_humidity;BME280_pressure;Samples;Min_cycle;Max_cycle;Signal;HPM_P1;HPM_P2
2024/04/07 00:01:15;;;;;;;0.00;0.00;;;;;;;18.43;53.15;94905.97;10452997;28;20678;-77
2024/04/07 00:06:15;;;;;;;0.00;0.00;;;;;;;18.37;53.47;94907.28;10471074;28;20333;-78
2024/04/07 00:11:16;;;;;;;0.00;0.00;;;;;;;18.32;54.27;94910.13;10471430;28;20281;-78
2024/04/07 00:16:16;;;;;;;0.00;0.00;;;;;;;18.38;53.75;94919.75;10462927;28;20717;-78
2024/04/07 00:21:17;;;;;;;0.00;0.00;;;;;;;18.33;53.21;94911.75;10469061;28;20475;-79
2024/04/07 00:26:17;;;;;;;0.00;0.00;;;;;;;18.24;55.20;94920.69;10426863;28;20063;-78
2024/04/07 00:31:17;;;;;;;0.00;0.00;;;;;;;18.26;56.03;94934.75;10471415;28;20526;-79
2024/04/07 00:36:18;;;;;;;0.00;0.00;;;;;;;18.27;55.04;94924.69;10458678;28;20352;-79
2024/04/07 00:41:18;;;;;;;0.00;0.00;;;;;;;18.25;56.45;94935.09;10470869;28;20047;-78
2024/04/07 00:46:18;;;;;;;0.00;0.00;;;;;;;18.15;58.20;94932.66;10469228;28;20437;-78
2024/04/07 00:51:19;;;;;;;0.00;0.00;;;;;;;18.12;58.58;94930.59;10469762;28;20028;-77
2024/04/07 00:56:20;;;;;;;0.00;0.00;;;;;;;18.02;57.80;94937.13;10469684;28;20021;-77
2024/04/07 01:01:20;;;;;;;0.00;0.00;;;;;;;17.83;59.39;94938.13;10471363;28;20025;-79
2024/04/07 01:06:20;;;;;;;0.00;0.00;;;;;;;17.86;62.71;94931.28;10469196;28;20166;-79
2024/04/07 01:11:28;;;;;;;0.00;0.00;;;;;;;17.92;64.35;94940.94;10434328;28;20399;-77
2024/04/07 01:16:28;;;;;;;0.00;0.00;;;;;;;17.83;65.75;94937.34;10469523;28;20859;-77
2024/04/07 01:21:29;;;;;;;0.00;0.00;;;;;;;17.85;68.04;94927.75;10456954;28;20161;-79
2024/04/07 01:26:29;;;;;;;0.00;0.00;;;;;;;17.72;68.77;94915.06;10450786;28;20056;-78
2024/04/07 01:31:31;;;;;;;0.00;0.00;;;;;;;17.71;70.72;94924.34;10455097;28;20032;-77
2024/04/07 01:36:32;;;;;;;0.00;0.00;;;;;;;17.70;73.31;94922.75;10455083;28;20472;-77
2024/04/07 01:41:33;;;;;;;0.00;0.00;;;;;;;17.47;77.81;94924.72;10469683;28;20302;-80
2024/04/07 01:46:33;;;;;;;0.00;0.00;;;;;;;17.39;83.48;94934.44;10468793;28;20028;-79
2024/04/07 01:51:33;;;;;;;0.00;0.00;;;;;;;17.40;86.15;94923.25;10467746;28;20662;-79
2024/04/07 01:56:34;;;;;;;;;;;;;;;17.42;87.80;94928.38;10468803;28;20044;-81
2024/04/07 02:01:34;;;;;;;0.00;0.00;;;;;;;17.45;88.71;94930.47;10468876;28;20491;-82
2024/04/07 02:06:34;;;;;;;0.00;0.00;;;;;;;17.45;90.57;94930.47;10468188;28;20040;-80
2024/04/07 02:11:35;;;;;;;0.00;0.00;;;;;;;17.34;90.68;94943.50;10468607;28;20114;-80
2024/04/07 02:16:35;;;;;;;0.00;0.00;;;;;;;17.34;93.01;94945.41;10471086;28;20032;-81
2024/04/07 02:21:35;;;;;;;0.00;0.00;;;;;;;17.26;92.64;94946.97;10447348;28;20132;-79
2024/04/07 02:26:36;;;;;;;0.00;0.00;;;;;;;17.26;93.23;94944.25;10452201;28;20140;-78
2024/04/07 02:31:36;;;;;;;0.00;0.00;;;;;;;17.28;94.49;94936.59;10470174;28;20041;-79
2024/04/07 02:36:37;;;;;;;0.00;0.00;;;;;;;17.36;93.41;94940.50;10468678;28;20024;-78
2024/04/07 02:41:40;;;;;;;0.00;0.00;;;;;;;17.41;93.73;94937.63;10468169;28;20523;-78
2024/04/07 02:51:59;;;;;;;0.00;0.00;;;;;;;17.16;96.68;94925.50;10469105;28;20028;-79
2024/04/07 02:56:59;;;;;;;0.00;0.00;;;;;;;17.17;98.63;94925.19;10470056;28;20444;-79
2024/04/07 03:02:00;;;;;;;0.00;0.00;;;;;;;17.12;97.12;94938.91;10472525;28;20013;-80
2024/04/07 03:07:00;;;;;;;0.00;0.00;;;;;;;16.85;98.73;94945.22;10468597;28;20355;-80
2024/04/07 03:12:01;;;;;;;0.00;0.00;;;;;;;16.92;100.00;94960.00;10450481;28;20116;-79
2024/04/07 03:17:01;;;;;;;0.00;0.00;;;;;;;17.00;97.05;94953.03;10469918;28;20119;-79
2024/04/07 03:22:02;;;;;;;0.00;0.00;;;;;;;16.91;99.93;94952.97;10468815;28;20024;-78
2024/04/07 03:27:02;;;;;;;0.00;0.00;;;;;;;16.99;98.59;94967.72;10477855;28;20438;-79
2024/04/07 03:32:04;;;;;;;0.00;0.00;;;;;;;17.01;99.46;94968.22;10475699;28;20032;-78
2024/04/07 03:37:07;;;;;;;0.00;0.00;;;;;;;17.00;97.92;94966.59;10476251;28;20079;-78
2024/04/07 03:42:07;;;;;;;0.00;0.00;;;;;;;16.99;97.07;94969.63;10475992;28;20498;-79
2024/04/07 03:47:08;;;;;;;;;;;;;;;16.95;94.93;94983.00;10432272;28;20473;-79
2024/04/07 03:52:08;;;;;;;0.00;0.00;;;;;;;16.96;95.51;94986.56;10435726;28;20283;-78
2024/04/07 03:57:08;;;;;;;0.00;0.00;;;;;;;16.98;98.30;94990.56;10473805;28;20028;-79
2024/04/07 04:02:09;;;;;;;0.00;0.00;;;;;;;16.89;97.09;94987.75;10474342;28;20082;-80
2024/04/07 04:07:09;;;;;;;0.00;0.00;;;;;;;16.92;96.25;94992.56;10474697;28;20035;-81
2024/04/07 04:12:09;;;;;;;0.00;0.00;;;;;;;16.94;99.07;94995.00;10475043;28;20047;-80
2024/04/07 04:17:11;;;;;;;0.00;0.00;;;;;;;16.94;99.72;94996.91;10474511;28;20034;-80
2024/04/07 04:22:11;;;;;;;0.00;0.00;;;;;;;16.85;100.00;94997.59;10472134;28;20056;-79
2024/04/07 04:27:12;;;;;;;0.00;0.00;;;;;;;16.67;100.00;95006.69;10433193;28;20033;-79
2024/04/07 04:32:12;;;;;;;0.00;0.00;;;;;;;16.51;100.00;95015.16;10415526;28;20039;-78
2024/04/07 04:37:12;;;;;;;0.00;0.00;;;;;;;16.61;100.00;95016.88;10416202;28;20025;-79
2024/04/07 04:42:13;;;;;;;0.00;0.00;;;;;;;16.71;100.00;95018.56;10433600;28;20471;-81
2024/04/07 04:47:13;;;;;;;0.00;0.00;;;;;;;16.67;100.00;95025.69;10432351;28;20035;-78
2024/04/07 04:52:13;;;;;;;0.00;0.00;;;;;;;16.69;100.00;95018.06;10437787;28;20033;-78
2024/04/07 04:57:17;;;;;;;0.00;0.00;;;;;;;16.67;100.00;95017.56;10470956;28;20024;-79
2024/04/07 05:02:18;;;;;;;0.00;0.00;;;;;;;16.55;100.00;95010.75;10451228;28;20453;-78
2024/04/07 05:07:18;;;;;;;0.00;0.00;;;;;;;16.44;100.00;95009.34;10450137;28;20510;-78
2024/04/07 05:12:19;;;;;;;0.00;0.00;;;;;;;16.29;100.00;95007.75;10464873;28;20037;-80
2024/04/07 05:17:19;;;;;;;0.00;0.00;;;;;;;16.04;100.00;95009.06;10466530;28;20025;-80
2024/04/07 05:22:19;;;;;;;0.00;0.00;;;;;;;15.99;100.00;95020.00;10468897;28;20392;-78
2024/04/07 05:27:21;;;;;;;0.00;0.00;;;;;;;16.10;100.00;95009.78;10466276;28;20132;-78
2024/04/07 05:32:21;;;;;;;0.00;0.00;;;;;;;16.12;100.00;95023.84;10468118;28;20387;-86
2024/04/07 05:37:22;;;;;;;0.00;0.00;;;;;;;16.46;100.00;95014.47;10449617;28;20457;-77
2024/04/07 05:42:24;;;;;;;0.00;0.00;;;;;;;16.34;100.00;95009.56;10467091;28;20487;-71
2024/04/07 05:47:25;;;;;;;0.00;0.00;;;;;;;16.73;100.00;95013.59;10424934;28;20242;-73
2024/04/07 05:52:25;;;;;;;0.00;0.00;;;;;;;17.27;100.00;95012.97;10464968;28;20044;-73
2024/04/07 05:57:25;;;;;;;0.00;0.00;;;;;;;18.97;95.21;94994.78;10447072;28;20035;-74
2024/04/07 06:02:26;;;;;;;0.00;0.00;;;;;;;20.66;80.75;94999.09;10459611;28;20025;-74
2024/04/07 06:07:26;;;;;;;0.00;0.00;;;;;;;22.00;64.89;95000.06;10464186;28;20043;-74
2024/04/07 06:12:26;;;;;;;0.00;0.00;;;;;;;23.37;56.35;94998.00;10463902;28;20028;-75
2024/04/07 06:17:27;;;;;;;0.00;0.00;;;;;;;24.46;47.41;94982.41;10464215;28;20139;-74
2024/04/07 06:22:27;;;;;;;0.00;0.00;;;;;;;24.70;44.64;94984.97;10444765;28;20055;-74
2024/04/07 06:27:27;;;;;;;0.00;0.00;;;;;;;24.94;45.50;94985.09;10463526;28;20039;-74
2024/04/07 06:32:29;;;;;;;0.00;0.00;;;;;;;25.24;42.19;94985.31;10449779;28;20048;-74
2024/04/07 06:37:29;;;;;;;0.00;0.00;;;;;;;25.34;42.40;94994.97;10462912;28;20031;-75
2024/04/07 06:42:31;;;;;;;0.00;0.00;;;;;;;25.96;40.41;95000.50;10462856;28;20024;-74
2024/04/07 06:47:31;;;;;;;0.00;0.00;;;;;;;25.65;40.15;95007.81;10463766;28;20445;-73
2024/04/07 06:52:32;;;;;;;0.00;0.00;;;;;;;26.77;39.51;95002.28;10462066;28;20119;-73
2024/04/07 06:57:32;;;;;;;0.00;0.00;;;;;;;26.75;36.71;95007.38;10462900;28;20392;-74
2024/04/07 07:02:32;;;;;;;0.00;0.00;;;;;;;27.44;36.97;95008.34;10463582;28;20398;-74
2024/04/07 07:07:33;;;;;;;0.00;0.00;;;;;;;27.92;36.52;95015.97;10444572;28;20029;-73
2024/04/07 07:12:33;;;;;;;0.00;0.00;;;;;;;28.17;33.81;95012.72;10463076;28;20028;-74
2024/04/07 07:17:34;;;;;;;0.00;0.00;;;;;;;28.61;34.44;95020.22;10462218;28;20379;-73
2024/04/07 07:22:34;;;;;;;0.00;0.00;;;;;;;29.05;33.33;95016.56;10461512;28;20032;-74
2024/04/07 07:27:34;;;;;;;0.00;0.00;;;;;;;30.42;31.96;95016.31;10461729;28;20494;-74
2024/04/07 07:32:35;;;;;;;0.00;0.00;;;;;;;31.49;29.05;95011.84;10462931;28;20106;-74
2024/04/07 07:37:35;;;;;;;0.00;0.00;;;;;;;30.40;29.84;95022.25;10462202;28;20110;-73
2024/04/07 07:42:35;;;;;;;0.00;0.00;;;;;;;28.35;32.96;95027.47;10461511;28;20028;-73
2024/04/07 07:47:36;;;;;;;0.00;0.00;;;;;;;26.75;36.15;95029.44;10462179;28;20112;-76
2024/04/07 07:52:36;;;;;;;0.00;0.00;;;;;;;25.38;39.97;95026.94;10461593;28;20036;-73
2024/04/07 07:57:36;;;;;;;0.00;0.00;;;;;;;24.97;38.91;95029.16;10442849;28;20031;-73
2024/04/07 08:02:38;;;;;;;0.00;0.00;;;;;;;24.71;39.45;95038.78;10461857;28;20402;-73
2024/04/07 08:07:38;;;;;;;0.00;0.00;;;;;;;24.30;40.89;95046.41;10443243;28;20483;-73
2024/04/07 08:12:40;;;;;;;0.00;0.00;;;;;;;23.76;41.38;95041.41;10467005;28;20055;-74
2024/04/07 08:17:40;;;;;;;0.00;0.00;;;;;;;23.21;44.40;95044.59;10468241;28;20032;-73
2024/04/07 08:22:41;;;;;;;0.00;0.00;;;;;;;22.87;45.46;95052.13;10449460;28;20048;-73
2024/04/07 08:27:41;;;;;;;0.00;0.00;;;;;;;22.69;45.57;95046.13;10468458;28;20117;-73
2024/04/07 08:32:43;;;;;;;0.00;0.00;;;;;;;23.19;45.44;95050.41;10449515;28;20383;-74
2024/04/07 08:37:43;;;;;;;0.00;0.00;;;;;;;22.94;48.12;95046.91;10468364;28;20413;-73
2024/04/07 08:42:44;;;;;;;0.00;0.00;;;;;;;23.13;45.67;95049.03;10467732;28;20121;-74
2024/04/07 08:47:45;;;;;;;0.00;0.00;;;;;;;22.90;46.55;95056.94;10465736;28;20396;-72
2024/04/07 08:52:46;;;;;;;0.00;0.00;;;;;;;23.51;45.65;95056.03;10466994;28;20127;-73
2024/04/07 08:57:47;;;;;;;0.00;0.00;;;;;;;23.50;43.48;95054.44;10449679;28;20299;-73
2024/04/07 09:02:49;;;;;;;0.00;0.00;;;;;;;23.26;41.39;95055.31;10466326;28;20028;-74
2024/04/07 09:07:49;;;;;;;0.00;0.00;;;;;;;23.32;41.99;95051.19;10466953;28;20016;-73
2024/04/07 09:12:51;;;;;;;0.00;0.00;;;;;;;24.65;39.53;95045.69;10466500;28;20793;-73
2024/04/07 09:17:53;;;;;;;0.00;0.00;;;;;;;24.33;41.39;95053.91;10466491;28;20094;-73
2024/04/07 09:22:53;;;;;;;0.00;0.00;;;;;;;23.82;39.40;95049.06;10466881;28;20078;-73
2024/04/07 09:27:53;;;;;;;0.00;0.00;;;;;;;23.76;40.55;95055.13;10465606;28;20061;-72
2024/04/07 09:32:55;;;;;;;0.00;0.00;;;;;;;23.59;39.37;95061.72;10465207;28;20121;-73
2024/04/07 09:37:55;;;;;;;0.00;0.00;;;;;;;23.11;40.69;95075.19;10447447;28;20781;-73
2024/04/07 09:42:59;;;;;;;0.00;0.00;;;;;;;22.61;40.74;95074.44;10465421;28;20333;-73
2024/04/07 09:48:02;;;;;;;0.00;0.00;;;;;;;22.25;39.48;95084.97;10465244;28;20054;-73
2024/04/07 09:53:17;;;;;;;0.00;0.00;;;;;;;22.06;40.12;95081.94;10464623;28;20486;-73
2024/04/07 09:58:22;;;;;;;0.00;0.00;;;;;;;21.94;41.88;95091.72;10465059;28;20427;-73
2024/04/07 10:03:23;;;;;;;0.00;0.00;;;;;;;22.35;42.45;95090.03;10464851;28;20095;-74
2024/04/07 10:08:23;;;;;;;0.00;0.00;;;;;;;23.49;40.82;95082.22;10446438;28;20024;-72
2024/04/07 10:13:24;;;;;;;0.00;0.00;;;;;;;23.61;40.29;95086.84;10464057;28;20480;-73
2024/04/07 10:18:28;;;;;;;0.00;0.00;;;;;;;24.82;38.83;95085.75;10464901;28;20047;-73
2024/04/07 10:23:28;;;;;;;0.00;0.00;;;;;;;25.83;36.50;95084.44;10463781;28;20068;-73
2024/04/07 10:28:48;;;;;;;0.00;0.00;;;;;;;25.24;38.52;95096.19;10462925;28;20040;-74
2024/04/07 10:33:50;;;;;;;0.00;0.00;;;;;;;24.19;40.62;95111.22;10462869;28;20032;-71
2024/04/07 10:38:56;;;;;;;0.00;0.00;;;;;;;24.64;39.63;95109.28;10463136;28;20119;-74
2024/04/07 10:43:58;;;;;;;0.00;0.00;;;;;;;25.65;38.52;95122.59;10408874;28;20063;-74
2024/04/07 10:48:58;;;;;;;0.00;0.00;;;;;;;28.12;32.89;95130.69;10459771;28;20060;-74
2024/04/07 10:54:04;;;;;;;0.00;0.00;;;;;;;27.18;34.96;95127.78;10463222;28;20145;-74
2024/04/07 10:59:04;;;;;;;0.00;0.00;;;;;;;25.64;37.95;95121.81;10462869;28;20032;-74
2024/04/07 11:04:04;;;;;;;0.00;0.00;;;;;;;24.33;39.76;95127.28;10462758;28;20513;-76
2024/04/07 11:09:06;;;;;;;0.00;0.00;;;;;;;23.04;43.50;95145.09;10444083;28;20071;-73
2024/04/07 11:14:08;;;;;;;0.00;0.00;;;;;;;25.85;40.20;95142.69;10461903;28;20337;-73
2024/04/07 11:19:16;;;;;;;0.00;0.00;;;;;;;26.06;37.03;95147.88;10463131;28;20048;-74
2024/04/07 11:24:18;;;;;;;0.00;0.00;;;;;;;24.12;40.62;95150.28;10462226;28;20037;-73
2024/04/07 11:29:19;;;;;;;0.00;0.00;;;;;;;22.58;45.05;95158.09;10462566;28;20055;-71
2024/04/07 11:34:21;;;;;;;0.00;0.00;;;;;;;22.15;48.35;95156.56;10462158;28;20039;-75
2024/04/07 11:39:24;;;;;;;0.00;0.00;;;;;;;21.44;52.93;95155.53;10444203;28;20040;-76
2024/04/07 11:44:24;;;;;;;0.00;0.00;;;;;;;21.53;56.86;95152.75;10462782;28;20032;-74
2024/04/07 11:49:25;;;;;;;0.00;0.00;;;;;;;21.54;55.32;95149.69;10423800;28;20044;-74
2024/04/07 11:54:25;;;;;;;0.00;0.00;;;;;;;21.98;55.85;95141.13;10469529;28;20136;-74
2024/04/07 11:59:25;;;;;;;0.00;0.00;;;;;;;22.42;53.29;95135.22;10469217;28;20784;-75
2024/04/07 12:04:26;;;;;;;0.00;0.00;;;;;;;22.22;53.16;95137.66;10428107;28;20032;-74
2024/04/07 12:09:26;;;;;;;0.00;0.00;;;;;;;21.95;47.33;95136.31;10469174;28;20162;-73
2024/04/07 12:14:26;;;;;;;0.00;0.00;;;;;;;21.33;46.91;95133.22;10467791;28;20396;-73
2024/04/07 12:19:27;;;;;;;0.00;0.00;;;;;;;21.33;47.35;95133.22;10468061;28;20028;-73
2024/04/07 12:24:27;;;;;;;0.00;0.00;;;;;;;21.11;52.62;95120.66;10468122;28;20521;-74
2024/04/07 12:29:28;;;;;;;0.00;0.00;;;;;;;21.08;50.40;95113.94;10468630;28;20806;-74
2024/04/07 12:34:28;;;;;;;0.00;0.00;;;;;;;21.08;49.08;95119.38;10467495;28;20077;-74
2024/04/07 12:39:29;;;;;;;0.00;0.00;;;;;;;21.09;49.52;95103.81;10468439;28;20510;-75
2024/04/07 12:44:30;;;;;;;0.00;0.00;;;;;;;21.04;52.09;95087.59;10467953;28;20115;-74
2024/04/07 12:49:30;;;;;;;0.00;0.00;;;;;;;21.13;45.90;95102.03;10466775;28;20382;-75
2024/04/07 12:54:30;;;;;;;0.00;0.00;;;;;;;20.92;47.94;95086.38;10467211;28;20020;-74
2024/04/07 12:59:31;;;;;;;0.00;0.00;;;;;;;20.80;45.77;95089.81;10467233;28;20291;-74
2024/04/07 13:04:31;;;;;;;0.00;0.00;;;;;;;20.65;45.12;95093.91;10467166;28;20739;-74
2024/04/07 13:09:32;;;;;;;0.00;0.00;;;;;;;20.65;45.70;95098.53;10467062;28;20665;-74
2024/04/07 13:14:32;;;;;;;0.00;0.00;;;;;;;20.61;48.44;95101.16;10466925;28;20058;-73
2024/04/07 13:19:32;;;;;;;0.00;0.00;;;;;;;20.73;42.99;95099.66;10466507;28;20142;-74
2024/04/07 13:24:33;;;;;;;0.00;0.00;;;;;;;20.48;44.07;95094.78;10464225;28;20059;-74
2024/04/07 13:29:33;;;;;;;0.00;0.00;;;;;;;20.58;42.79;95085.44;10465781;28;20031;-73
2024/04/07 13:34:34;;;;;;;0.00;0.00;;;;;;;20.49;42.94;95099.09;10465745;28;20275;-74
2024/04/07 13:39:35;;;;;;;0.00;0.00;;;;;;;20.35;43.53;95103.19;10464930;28;20619;-74
2024/04/07 13:44:37;;;;;;;0.00;0.00;;;;;;;20.45;42.46;95100.09;10465454;28;20111;-74
2024/04/07 13:49:39;;;;;;;0.00;0.00;;;;;;;20.42;42.86;95098.00;10464880;28;20040;-74
2024/04/07 13:54:39;;;;;;;0.00;0.00;;;;;;;20.53;42.41;95093.00;10464291;28;20033;-74
2024/04/07 13:59:40;;;;;;;;;;;;;;;20.70;43.26;95089.41;10446713;28;20444;-73
2024/04/07 14:04:41;;;;;;;0.00;0.00;;;;;;;20.77;40.60;95104.13;10465845;28;20459;-74
2024/04/07 14:09:41;;;;;;;;;;;;;;;20.80;41.83;95106.19;10463463;28;20035;-74
2024/04/07 14:14:43;;;;;;;0.00;0.00;;;;;;;20.90;41.99;95112.44;10462283;28;20501;-74
2024/04/07 14:19:44;;;;;;;0.00;0.00;;;;;;;20.75;42.45;95124.72;10446043;28;20120;-74
2024/04/07 14:24:44;;;;;;;0.00;0.00;;;;;;;20.52;41.96;95127.69;10444751;28;20051;-74
2024/04/07 14:29:44;;;;;;;0.00;0.00;;;;;;;20.45;40.88;95121.91;10445421;28;20275;-74
2024/04/07 14:34:45;;;;;;;0.00;0.00;;;;;;;20.38;42.36;95119.69;10445884;28;20111;-74
2024/04/07 14:39:45;;;;;;;0.00;0.00;;;;;;;20.46;42.80;95134.44;10462733;28;20115;-75
2024/04/07 14:44:45;;;;;;;0.00;0.00;;;;;;;20.31;42.13;95119.41;10462877;28;20309;-73
2024/04/07 14:49:50;;;;;;;0.00;0.00;;;;;;;20.17;41.31;95141.44;10462370;28;20036;-75
2024/04/07 14:54:50;;;;;;;0.00;0.00;;;;;;;19.85;41.84;95157.19;10461490;28;20087;-74
2024/04/07 14:59:51;;;;;;;0.00;0.00;;;;;;;19.71;40.71;95149.16;10462780;28;20028;-75
2024/04/07 15:04:53;;;;;;;0.00;0.00;;;;;;;19.51;38.94;95156.06;10444725;28;20032;-75
2024/04/07 15:09:53;;;;;;;0.00;0.00;;;;;;;19.46;39.83;95150.75;10462204;28;20040;-74
2024/04/07 15:14:54;;;;;;;0.00;0.00;;;;;;;19.33;39.61;95155.22;10444527;28;20044;-75
2024/04/07 15:19:54;;;;;;;0.00;0.00;;;;;;;19.13;41.32;95176.50;10448340;28;20071;-75
2024/04/07 15:24:54;;;;;;;0.00;0.00;;;;;;;19.04;43.83;95202.91;10451975;28;20056;-73
2024/04/07 15:29:58;;;;;;;0.00;0.00;;;;;;;18.92;44.17;95206.25;10470813;28;20282;-73
2024/04/07 15:34:58;;;;;;;0.00;0.00;;;;;;;18.83;43.33;95196.41;10470674;28;20286;-75
2024/04/07 15:39:59;;;;;;;0.00;0.00;;;;;;;18.68;43.92;95203.06;10469096;28;20502;-74
2024/04/07 15:44:59;;;;;;;0.00;0.00;;;;;;;18.47;45.33;95200.88;10450733;28;20396;-75
2024/04/07 15:50:00;;;;;;;0.00;0.00;;;;;;;18.48;46.06;95205.22;10469556;28;20615;-75
2024/04/07 15:55:00;;;;;;;0.00;0.00;;;;;;;18.37;44.38;95220.19;10469670;28;20036;-75
2024/04/07 16:00:00;;;;;;;0.00;0.00;;;;;;;18.17;40.89;95246.78;10452171;28;20016;-76
2024/04/07 16:05:06;;;;;;;;;;;;;;;18.30;39.99;95241.59;10470214;28;20477;-74
2024/04/07 16:10:07;;;;;;;;;;;;;;;18.35;38.80;95250.44;10459508;28;20307;-75
2024/04/07 16:15:07;;;;;;;;;;;;;;;18.15;38.09;95243.56;10420090;28;19912;-76
2024/04/07 16:20:08;;;;;;;;;;;;;;;18.12;38.58;95241.47;10451232;28;20424;-74
2024/04/07 16:25:08;;;;;;;;;;;;;;;18.09;39.42;95234.72;10450091;28;20905;-76
2024/04/07 16:30:09;;;;;;;;;;;;;;;18.08;40.02;95233.13;10449704;28;19938;-75
2024/04/07 16:35:09;;;;;;;;;;;;;;;18.02;40.59;95236.28;10469101;28;20002;-75
2024/04/07 16:40:09;;;;;;;;;;;;;;;17.99;40.96;95236.91;10468368;28;19912;-74
2024/04/07 16:45:10;;;;;;;;;;;;;;;17.88;41.10;95245.25;10456831;28;20752;-76
2024/04/07 16:50:10;;;;;;;;;;;;;;;17.80;41.52;95254.13;10425960;28;20048;-75
2024/04/07 16:55:16;;;;;;;;;;;;;;;17.65;42.01;95268.06;10460120;28;19927;-75
2024/04/07 17:00:16;;;;;;;;;;;;;;;17.50;42.30;95264.56;10468261;28;19927;-74
2024/04/07 17:05:17;;;;;;;;;;;;;;;17.50;43.19;95266.47;10468280;28;20288;-75
2024/04/07 17:10:17;;;;;;;;;;;;;;;17.43;43.83;95275.84;10461392;28;19916;-77
2024/04/07 17:15:18;;;;;;;0.00;0.00;;;;;;;17.37;45.01;95281.69;10438672;28;20414;-74
2024/04/07 17:20:18;;;;;;;0.00;0.00;;;;;;;17.22;46.51;95280.91;10467082;28;20267;-75
2024/04/07 17:25:19;;;;;;;0.00;0.00;;;;;;;16.92;46.26;95285.78;10465468;28;20049;-75
2024/04/07 17:30:19;;;;;;;0.00;0.00;;;;;;;16.83;47.25;95279.44;10447837;28;20149;-77
2024/04/07 17:35:21;;;;;;;0.00;0.00;;;;;;;16.70;47.99;95285.63;10465112;28;20027;-75
2024/04/07 17:40:22;;;;;;;0.00;0.00;;;;;;;16.60;48.50;95291.25;10465274;28;20051;-74
2024/04/07 17:45:22;;;;;;;0.00;0.00;;;;;;;16.48;48.90;95314.22;10464612;28;20043;-73
2024/04/07 17:50:23;;;;;;;0.00;0.00;;;;;;;16.29;49.42;95318.88;10464963;28;20141;-75
2024/04/07 17:55:25;;;;;;;;;;;;;;;16.33;49.99;95331.53;10465683;28;20036;-75
2024/04/07 18:00:27;;;;;;;;;;;;;;;16.20;51.45;95326.84;10465595;28;20905;-75
2024/04/07 18:05:29;;;;;;;;;;;;;;;16.12;52.66;95332.97;10464894;28;19908;-74
2024/04/07 18:10:30;;;;;;;;;;;;;;;16.13;53.75;95348.09;10476230;28;19923;-75
2024/04/07 18:15:32;;;;;;;;;;;;;;;16.03;54.28;95358.03;10447028;28;20303;-74
2024/04/07 18:20:33;;;;;;;;;;;;;;;15.87;54.98;95354.69;10446459;28;19908;-74
2024/04/07 18:25:33;;;;;;;;;;;;;;;15.84;55.58;95352.56;10446740;28;19916;-74
2024/04/07 18:30:36;;;;;;;;;;;;;;;15.78;56.44;95361.03;10441187;28;20241;-81
2024/04/07 18:35:37;;;;;;;;;;;;;;;15.79;57.07;95373.47;10437386;28;19912;-75
2024/04/07 18:40:37;;;;;;;;;;;;;;;15.70;57.45;95371.41;10433902;28;20395;-77
2024/04/07 18:45:38;;;;;;;;;;;;;;;15.76;57.80;95363.22;10438685;28;20752;-75
2024/04/07 18:50:39;;;;;;;;;;;;;;;15.75;58.53;95370.53;10434188;28;20433;-74
2024/04/07 18:55:39;;;;;;;;;;;;;;;15.58;60.62;95367.50;10408278;28;19923;-74
2024/04/07 19:00:48;;;;;;;;;;;;;;;15.41;62.57;95366.06;10430025;28;19972;-76
2024/04/07 19:05:52;;;;;;;;;;;;;;;15.17;65.07;95379.59;10433292;28;19913;-74
2024/04/07 19:10:59;;;;;;;;;;;;;;;15.03;66.40;95379.47;10436094;28;19917;-75
2024/04/07 19:16:03;;;;;;;;;;;;;;;15.07;67.08;95379.69;10427150;28;19917;-73
2024/04/07 19:21:03;;;;;;;;;;;;;;;15.18;69.65;95368.47;10434836;28;19982;-73
2024/04/07 19:26:04;;;;;;;;;;;;;;;15.23;74.23;95377.66;10434337;28;19927;-71
2024/04/07 19:31:07;;;;;;;;;;;;;;;15.12;75.83;95374.22;10431393;28;19964;-70
2024/04/07 19:36:07;;;;;;;;;;;;;;;15.07;68.85;95368.84;10424925;28;20640;-74
2024/04/07 19:41:08;;;;;;;;;;;;;;;15.06;70.49;95373.47;10426935;28;20398;-73
2024/04/07 19:46:08;;;;;;;;;;;;;;;14.98;71.19;95379.50;10433009;28;20363;-76
2024/04/07 19:51:08;;;;;;;;;;;;;;;15.01;79.40;95378.94;10416267;28;19931;-74
2024/04/07 19:56:09;;;;;;;;;;;;;;;14.98;73.66;95379.50;10430157;28;20726;-75
2024/04/07 20:01:10;;;;;;;;;;;;;;;14.99;76.27;95378.41;10422408;28;20378;-77
2024/04/07 20:06:10;;;;;;;;;;;;;;;14.76;75.42;95386.16;10434123;28;19929;-82
2024/04/07 20:11:10;;;;;;;;;;;;;;;14.73;84.08;95380.53;10427873;28;20025;-77
2024/04/07 20:16:10;;;;;;;;;;;;;;;14.76;91.14;95374.56;10427789;28;19916;-77
2024/04/07 20:21:10;;;;;;;;;;;;;;;14.44;79.57;95375.84;10450680;28;19996;-74
2024/04/07 20:26:11;;;;;;;;;;;;;;;14.48;82.34;95385.00;10456780;28;19963;-74
2024/04/07 20:31:11;;;;;;;;;;;;;;;14.36;86.60;95383.47;10438436;28;19920;-75
2024/04/07 20:36:11;;;;;;;;;;;;;;;14.13;95.61;95379.56;10467450;28;20340;-74
2024/04/07 20:41:12;;;;;;;;;;;;;;;14.20;97.94;95387.38;10449111;28;19912;-73
2024/04/07 20:46:12;;;;;;;;;;;;;;;14.21;90.01;95378.19;10448609;28;20398;-74
2024/04/07 20:51:12;;;;;;;;;;;;;;;14.15;95.50;95385.50;10466806;28;19916;-75
2024/04/07 20:56:13;;;;;;;;;;;;;;;13.99;87.36;95384.78;10448746;28;20323;-73
2024/04/07 21:01:13;;;;;;;;;;;;;;;13.80;91.55;95383.78;10465977;28;21046;-74
2024/04/07 21:06:13;;;;;;;;;;;;;;;13.59;96.21;95385.78;10465586;28;19912;-75
2024/04/07 21:11:13;;;;;;;;;;;;;;;13.59;90.99;95381.19;10466032;28;20433;-73
2024/04/07 21:16:14;;;;;;;;;;;;;;;13.55;95.01;95379.31;10465557;28;19908;-74
2024/04/07 21:21:14;;;;;;;;;;;;;;;13.58;92.18;95381.47;10465239;28;19912;-73
2024/04/07 21:26:14;;;;;;;;;;;;;;;13.43;95.45;95383.13;10448321;28;20015;-73
2024/04/07 21:31:15;;;;;;;;;;;;;;;13.32;98.51;95365.31;10465545;28;19966;-74
2024/04/07 21:36:15;;;;;;;;;;;;;;;13.31;90.15;95372.63;10465011;28;19912;-73
2024/04/07 21:41:16;;;;;;;;;;;;;;;13.33;85.97;95380.44;10465293;28;19999;-74
2024/04/07 21:46:16;;;;;;;;;;;;;;;13.23;84.14;95385.84;10465149;28;20393;-74
2024/04/07 21:51:16;;;;;;;;;;;;;;;13.13;84.20;95387.50;10446765;28;20191;-73
2024/04/07 21:56:16;;;;;;;;;;;;;;;13.07;85.56;95382.38;10446407;28;19951;-74
2024/04/07 22:01:19;;;;;;;;;;;;;;;12.93;85.89;95377.53;10465539;28;20351;-73
2024/04/07 22:06:19;;;;;;;;;;;;;;;13.08;89.02;95375.91;10445462;28;19913;-74
2024/04/07 22:11:19;;;;;;;;;;;;;;;13.09;89.57;95372.09;10463698;28;19916;-72
2024/04/07 22:16:19;;;;;;;;;;;;;;;13.09;91.29;95375.63;10446205;28;20283;-74
2024/04/07 22:21:20;;;;;;;;;;;;;;;13.10;92.71;95371.03;10446037;28;19966;-73
2024/04/07 22:26:20;;;;;;;;;;;;;;;13.05;92.38;95373.75;10462667;28;20019;-73
2024/04/07 22:31:20;;;;;;;;;;;;;;;12.95;88.42;95377.28;10463882;28;19923;-74
2024/04/07 22:36:21;;;;;;;;;;;;;;;12.85;87.75;95366.50;10463580;28;19914;-73
2024/04/07 22:41:21;;;;;;;;;;;;;;;12.75;88.57;95380.81;10444799;28;20357;-73
2024/04/07 22:46:21;;;;;;;;;;;;;;;12.62;87.19;95368.69;10462938;28;20401;-72
2024/04/07 22:51:21;;;;;;;;;;;;;;;12.63;88.35;95362.22;10463044;28;20278;-73
2024/04/07 22:56:23;;;;;;;;;;;;;;;12.41;89.43;95363.28;10462439;28;19908;-74
2024/04/07 23:01:23;;;;;;;;;;;;;;;12.35;91.09;95353.59;10462537;28;19932;-73
2024/04/07 23:06:24;;;;;;;;;;;;;;;12.21;90.88;95363.25;10463037;28;19908;-74
2024/04/07 23:11:24;;;;;;;;;;;;;;;12.29;90.11;95355.47;10462339;28;19963;-74
2024/04/07 23:16:24;;;;;;;;;;;;;;;12.13;91.60;95353.81;10461750;28;20428;-73
2024/04/07 23:21:24;;;;;;;;;;;;;;;11.99;92.41;95355.41;10444005;28;20347;-75
2024/04/07 23:26:25;;;;;;;;;;;;;;;11.98;93.27;95354.59;10461443;28;20015;-74
2024/04/07 23:31:25;;;;;;;;;;;;;;;11.80;95.10;95359.38;10460931;28;19923;-73
2024/04/07 23:36:25;;;;;;;;;;;;;;;11.56;97.71;95353.63;10462138;28;20367;-74
2024/04/07 23:41:25;;;;;;;;;;;;;;;11.23;100.00;95360.22;10466689;28;19913;-73
2024/04/07 23:46:26;;;;;;;;;;;;;;;11.14;100.00;95359.13;10471242;28;20221;-75
2024/04/07 23:51:26;;;;;;;;;;;;;;;11.13;100.00;95346.72;10468994;28;19912;-74
2024/04/07 23:56:26;;;;;;;;;;;;;;;10.85;100.00;95348.72;10450828;28;20011;-74
